createdAt,value
2018-02-15T00:00:17.237Z,90.49
2018-02-15T00:01:22.774Z,90.40
2018-02-15T00:02:28.297Z,91.06
2018-02-15T00:03:33.821Z,90.59
2018-02-15T00:04:39.350Z,90.49
2018-02-15T00:05:44.873Z,90.49
2018-02-15T00:06:50.414Z,90.68
2018-02-15T00:07:55.931Z,90.68
2018-02-15T00:09:01.458Z,90.68
2018-02-15T00:10:06.990Z,90.68
2018-02-15T00:11:12.519Z,90.02
2018-02-15T00:12:18.043Z,90.02
2018-02-15T00:13:23.566Z,90.96
2018-02-15T00:14:29.095Z,90.59
2018-02-15T00:15:34.619Z,90.02
2018-02-15T00:16:40.150Z,89.83
2018-02-15T00:17:45.675Z,89.83
2018-02-15T00:18:51.209Z,89.73
2018-02-15T00:19:56.732Z,89.73
2018-02-15T00:21:02.259Z,90.11
2018-02-15T00:22:07.783Z,90.02
2018-02-15T00:23:13.318Z,89.73
2018-02-15T00:24:18.842Z,89.73
2018-02-15T00:25:24.378Z,90.11
2018-02-15T00:26:29.904Z,90.02
2018-02-15T00:27:35.422Z,90.11
2018-02-15T00:28:40.952Z,90.11
2018-02-15T00:29:46.476Z,90.02
2018-02-15T00:30:52.002Z,89.83
2018-02-15T00:31:57.537Z,89.83
2018-02-15T00:33:03.060Z,90.02
2018-02-15T00:34:08.586Z,90.30
2018-02-15T00:35:14.113Z,89.83
2018-02-15T00:36:19.643Z,89.54
2018-02-15T00:37:25.173Z,89.73
2018-02-15T00:38:30.693Z,89.54
2018-02-15T00:39:36.223Z,89.92
2018-02-15T00:40:41.753Z,89.54
2018-02-15T00:41:47.282Z,89.73
2018-02-15T00:42:52.804Z,89.64
2018-02-15T00:43:58.330Z,89.92
2018-02-15T00:45:03.863Z,89.54
2018-02-15T00:46:09.387Z,89.45
2018-02-15T00:47:14.914Z,89.36
2018-02-15T00:48:20.449Z,89.36
2018-02-15T00:49:25.966Z,89.36
2018-02-15T00:50:31.497Z,89.36
2018-02-15T00:51:37.023Z,89.64
2018-02-15T00:52:42.559Z,89.54
2018-02-15T00:53:48.082Z,89.26
2018-02-15T00:54:53.602Z,89.54
2018-02-15T00:55:59.132Z,88.70
2018-02-15T00:57:04.659Z,88.89
2018-02-15T00:58:10.203Z,88.98
2018-02-15T00:59:15.720Z,89.17
2018-02-15T01:00:21.246Z,88.70
2018-02-15T01:01:26.770Z,88.23
2018-02-15T01:02:32.299Z,88.89
2018-02-15T01:03:37.823Z,88.51
2018-02-15T01:04:43.355Z,88.89
2018-02-15T01:05:48.886Z,88.32
2018-02-15T01:06:54.405Z,88.04
2018-02-15T01:07:59.938Z,88.04
2018-02-15T01:09:05.458Z,88.32
2018-02-15T01:10:10.986Z,87.89
2018-02-15T01:11:16.513Z,88.17
2018-02-15T01:12:22.040Z,87.89
2018-02-15T01:13:27.571Z,88.17
2018-02-15T01:14:33.099Z,88.08
2018-02-15T01:15:38.630Z,88.08
2018-02-15T01:16:44.152Z,88.17
2018-02-15T01:17:49.679Z,87.89
2018-02-15T01:18:55.212Z,88.17
2018-02-15T01:20:00.729Z,88.36
2018-02-15T01:21:06.264Z,87.61
2018-02-15T01:22:11.786Z,87.61
2018-02-15T01:23:17.312Z,87.79
2018-02-15T01:24:22.842Z,87.51
2018-02-15T01:25:28.373Z,87.42
2018-02-15T01:26:33.899Z,87.61
2018-02-15T01:27:39.423Z,87.70
2018-02-15T01:28:44.952Z,87.42
2018-02-15T01:29:50.478Z,87.51
2018-02-15T01:30:56.006Z,87.42
2018-02-15T01:32:01.536Z,86.94
2018-02-15T01:33:07.063Z,87.13
2018-02-15T01:34:12.596Z,86.57
2018-02-15T01:35:18.113Z,86.19
2018-02-15T01:36:23.640Z,86.29
2018-02-15T01:37:29.171Z,86.47
2018-02-15T01:38:34.701Z,86.85
2018-02-15T01:39:40.221Z,86.38
2018-02-15T01:40:45.755Z,86.38
2018-02-15T01:41:51.281Z,86.00
2018-02-15T01:42:56.804Z,86.57
2018-02-15T01:44:02.329Z,86.47
2018-02-15T01:45:07.865Z,85.81
2018-02-15T01:46:13.391Z,85.81
2018-02-15T01:47:18.915Z,85.72
2018-02-15T01:48:24.439Z,85.81
2018-02-15T01:49:29.970Z,86.76
2018-02-15T01:50:35.493Z,86.29
2018-02-15T01:51:41.029Z,86.76
2018-02-15T01:52:46.550Z,86.29
2018-02-15T01:53:52.078Z,86.47
2018-02-15T01:54:57.607Z,86.38
2018-02-15T01:56:03.133Z,86.94
2018-02-15T01:57:08.662Z,86.38
2018-02-15T01:58:14.189Z,86.66
2018-02-15T01:59:19.715Z,86.57
2018-02-15T02:00:25.246Z,86.19
2018-02-15T02:01:30.771Z,86.57
2018-02-15T02:02:36.303Z,86.85
2018-02-15T02:03:41.895Z,86.47
2018-02-15T02:04:47.361Z,86.66
2018-02-15T02:05:52.880Z,86.47
2018-02-15T02:06:58.404Z,85.72
2018-02-15T02:08:03.936Z,85.81
2018-02-15T02:09:09.462Z,85.91
2018-02-15T02:10:14.991Z,86.10
2018-02-15T02:11:20.516Z,86.00
2018-02-15T02:12:26.149Z,85.72
2018-02-15T02:13:31.576Z,85.81
2018-02-15T02:14:37.096Z,86.00
2018-02-15T02:15:42.624Z,86.19
2018-02-15T02:16:48.156Z,85.72
2018-02-15T02:17:53.910Z,85.91
2018-02-15T02:18:59.208Z,85.62
2018-02-15T02:20:04.735Z,85.91
2018-02-15T02:21:10.270Z,86.00
2018-02-15T02:22:15.790Z,85.81
2018-02-15T02:23:21.313Z,85.91
2018-02-15T02:24:26.845Z,85.81
2018-02-15T02:25:32.379Z,86.10
2018-02-15T02:26:37.901Z,85.72
2018-02-15T02:27:43.425Z,85.91
2018-02-15T02:28:48.952Z,85.91
2018-02-15T02:29:54.488Z,86.29
2018-02-15T02:31:00.017Z,85.81
2018-02-15T02:32:05.541Z,85.91
2018-02-15T02:33:11.066Z,85.81
2018-02-15T02:34:16.593Z,85.81
2018-02-15T02:35:22.118Z,86.00
2018-02-15T02:36:27.646Z,86.00
2018-02-15T02:37:33.174Z,86.00
2018-02-15T02:38:38.702Z,86.19
2018-02-15T02:39:44.231Z,86.00
2018-02-15T02:40:49.754Z,85.81
2018-02-15T02:41:55.284Z,85.81
2018-02-15T02:43:00.815Z,85.91
2018-02-15T02:44:06.342Z,85.91
2018-02-15T02:45:11.867Z,86.00
2018-02-15T02:46:17.397Z,86.66
2018-02-15T02:47:22.925Z,85.72
2018-02-15T02:48:28.448Z,85.91
2018-02-15T02:49:33.977Z,85.91
2018-02-15T02:50:39.506Z,86.00
2018-02-15T02:51:45.031Z,86.10
2018-02-15T02:52:50.561Z,86.10
2018-02-15T02:53:56.084Z,85.62
2018-02-15T02:55:01.614Z,86.85
2018-02-15T02:56:07.151Z,86.66
2018-02-15T02:57:12.733Z,86.76
2018-02-15T02:58:18.197Z,86.66
2018-02-15T02:59:23.730Z,86.66
2018-02-15T03:00:29.255Z,86.76
2018-02-15T03:01:34.777Z,86.76
2018-02-15T03:02:40.305Z,86.66
2018-02-15T03:03:45.843Z,86.57
2018-02-15T03:04:51.368Z,86.47
2018-02-15T03:05:56.885Z,86.57
2018-02-15T03:07:02.419Z,86.38
2018-02-15T03:08:07.945Z,86.29
2018-02-15T03:09:13.475Z,86.29
2018-02-15T03:10:18.995Z,86.38
2018-02-15T03:11:24.524Z,86.29
2018-02-15T03:12:30.054Z,86.29
2018-02-15T03:13:35.585Z,86.38
2018-02-15T03:14:41.108Z,86.76
2018-02-15T03:15:46.640Z,86.94
2018-02-15T03:16:52.165Z,86.29
2018-02-15T03:17:57.693Z,86.38
2018-02-15T03:19:03.219Z,86.66
2018-02-15T03:20:08.750Z,86.85
2018-02-15T03:21:14.271Z,86.66
2018-02-15T03:22:19.804Z,85.62
2018-02-15T03:23:25.328Z,85.81
2018-02-15T03:24:30.855Z,86.38
2018-02-15T03:25:36.390Z,86.85
2018-02-15T03:26:41.911Z,86.47
2018-02-15T03:27:47.437Z,86.66
2018-02-15T03:28:52.966Z,86.38
2018-02-15T03:29:58.492Z,86.57
2018-02-15T03:31:04.023Z,86.66
2018-02-15T03:32:09.552Z,86.29
2018-02-15T03:33:15.087Z,86.29
2018-02-15T03:34:20.614Z,86.29
2018-02-15T03:35:26.129Z,86.38
2018-02-15T03:36:31.662Z,86.29
2018-02-15T03:37:37.182Z,86.57
2018-02-15T03:38:42.715Z,86.76
2018-02-15T03:39:48.241Z,86.85
2018-02-15T03:40:53.771Z,86.47
2018-02-15T03:41:59.291Z,86.85
2018-02-15T03:43:04.840Z,86.85
2018-02-15T03:44:10.351Z,86.85
2018-02-15T03:45:15.877Z,86.76
2018-02-15T03:46:21.410Z,86.47
2018-02-15T03:47:26.938Z,86.38
2018-02-15T03:48:32.461Z,86.38
2018-02-15T03:49:37.985Z,86.57
2018-02-15T03:50:43.515Z,86.85
2018-02-15T03:51:49.043Z,86.29
2018-02-15T03:52:54.567Z,86.57
2018-02-15T03:54:00.095Z,86.47
2018-02-15T03:55:05.638Z,86.66
2018-02-15T03:56:11.151Z,86.57
2018-02-15T03:57:16.683Z,86.47
2018-02-15T03:58:22.214Z,86.19
2018-02-15T03:59:27.729Z,86.29
2018-02-15T04:00:33.260Z,86.47
2018-02-15T04:01:38.796Z,86.38
2018-02-15T04:02:44.316Z,86.47
2018-02-15T04:03:49.846Z,86.66
2018-02-15T04:04:55.373Z,86.38
2018-02-15T04:06:00.898Z,86.47
2018-02-15T04:07:06.428Z,86.66
2018-02-15T04:08:11.949Z,86.66
2018-02-15T04:09:17.479Z,85.81
2018-02-15T04:10:23.006Z,85.62
2018-02-15T04:11:28.534Z,86.47
2018-02-15T04:12:34.064Z,86.85
2018-02-15T04:13:39.590Z,86.57
2018-02-15T04:14:45.120Z,86.57
2018-02-15T04:15:50.648Z,86.38
2018-02-15T04:16:56.171Z,86.19
2018-02-15T04:18:01.700Z,86.47
2018-02-15T04:19:07.234Z,86.47
2018-02-15T04:20:12.768Z,85.53
2018-02-15T04:21:18.289Z,86.10
2018-02-15T04:22:23.808Z,85.53
2018-02-15T04:23:29.336Z,85.72
2018-02-15T04:24:34.867Z,86.29
2018-02-15T04:25:40.391Z,86.19
2018-02-15T04:26:45.917Z,87.04
2018-02-15T04:27:51.451Z,86.66
2018-02-15T04:28:56.978Z,86.76
2018-02-15T04:30:02.502Z,86.38
2018-02-15T04:31:08.028Z,86.29
2018-02-15T04:32:13.560Z,86.85
2018-02-15T04:33:19.082Z,86.29
2018-02-15T04:34:24.618Z,86.29
2018-02-15T04:35:30.137Z,86.57
2018-02-15T04:36:35.666Z,86.38
2018-02-15T04:37:41.205Z,86.85
2018-02-15T04:38:46.729Z,86.94
2018-02-15T04:39:52.251Z,86.85
2018-02-15T04:40:57.781Z,87.04
2018-02-15T04:42:03.314Z,87.51
2018-02-15T04:43:08.832Z,87.13
2018-02-15T04:44:14.357Z,86.76
2018-02-15T04:45:19.890Z,87.42
2018-02-15T04:46:25.418Z,87.13
2018-02-15T04:47:30.941Z,87.51
2018-02-15T04:48:36.474Z,87.23
2018-02-15T04:49:41.998Z,86.94
2018-02-15T04:50:47.526Z,86.38
2018-02-15T04:51:53.057Z,86.38
2018-02-15T04:52:58.676Z,86.94
2018-02-15T04:54:04.111Z,86.76
2018-02-15T04:55:09.637Z,87.13
2018-02-15T04:56:15.161Z,86.85
2018-02-15T04:57:20.693Z,87.04
2018-02-15T04:58:26.227Z,86.76
2018-02-15T04:59:31.748Z,86.85
2018-02-15T05:00:37.274Z,87.23
2018-02-15T05:01:42.810Z,87.42
2018-02-15T05:02:48.323Z,87.32
2018-02-15T05:03:53.855Z,87.42
2018-02-15T05:04:59.388Z,87.61
2018-02-15T05:06:04.913Z,87.23
2018-02-15T05:07:10.434Z,87.51
2018-02-15T05:08:15.976Z,87.04
2018-02-15T05:09:21.491Z,86.94
2018-02-15T05:10:27.022Z,87.42
2018-02-15T05:11:32.545Z,87.42
2018-02-15T05:12:38.077Z,87.51
2018-02-15T05:13:43.610Z,87.42
2018-02-15T05:14:49.140Z,87.70
2018-02-15T05:15:54.659Z,87.32
2018-02-15T05:17:00.188Z,87.61
2018-02-15T05:18:05.733Z,87.61
2018-02-15T05:19:11.238Z,88.27
2018-02-15T05:20:16.766Z,88.17
2018-02-15T05:21:22.293Z,87.79
2018-02-15T05:22:27.826Z,87.42
2018-02-15T05:23:33.351Z,87.42
2018-02-15T05:24:38.875Z,87.98
2018-02-15T05:25:44.404Z,87.98
2018-02-15T05:26:49.935Z,87.70
2018-02-15T05:27:55.462Z,87.89
2018-02-15T05:29:00.986Z,87.89
2018-02-15T05:30:06.515Z,87.98
2018-02-15T05:31:12.041Z,88.08
2018-02-15T05:32:17.566Z,88.36
2018-02-15T05:33:23.096Z,88.36
2018-02-15T05:34:28.624Z,88.46
2018-02-15T05:35:34.153Z,88.36
2018-02-15T05:36:39.678Z,88.08
2018-02-15T05:37:45.212Z,88.55
2018-02-15T05:38:50.746Z,88.55
2018-02-15T05:39:56.259Z,88.65
2018-02-15T05:41:01.809Z,88.74
2018-02-15T05:42:07.313Z,88.36
2018-02-15T05:43:12.840Z,88.36
2018-02-15T05:44:18.370Z,88.46
2018-02-15T05:45:23.900Z,89.12
2018-02-15T05:46:29.425Z,89.31
2018-02-15T05:47:34.961Z,88.46
2018-02-15T05:48:40.482Z,88.32
2018-02-15T05:49:46.003Z,89.12
2018-02-15T05:50:51.536Z,88.93
2018-02-15T05:51:57.060Z,88.98
2018-02-15T05:53:02.594Z,89.17
2018-02-15T05:54:08.124Z,89.03
2018-02-15T05:55:13.645Z,88.89
2018-02-15T05:56:19.175Z,88.98
2018-02-15T05:57:24.703Z,88.79
2018-02-15T05:58:30.230Z,88.79
2018-02-15T05:59:35.758Z,88.60
2018-02-15T06:00:41.283Z,89.07
2018-02-15T06:01:46.805Z,89.83
2018-02-15T06:02:52.335Z,89.54
2018-02-15T06:03:57.872Z,89.83
2018-02-15T06:05:03.392Z,89.83
2018-02-15T06:06:08.922Z,89.73
2018-02-15T06:07:14.445Z,89.64
2018-02-15T06:08:19.970Z,89.73
2018-02-15T06:09:25.502Z,90.11
2018-02-15T06:10:31.034Z,89.92
2018-02-15T06:11:36.552Z,89.54
2018-02-15T06:12:42.086Z,89.64
2018-02-15T06:13:47.608Z,89.73
2018-02-15T06:14:53.140Z,89.64
2018-02-15T06:15:58.666Z,89.54
2018-02-15T06:17:04.191Z,89.54
2018-02-15T06:18:09.725Z,89.54
2018-02-15T06:19:15.254Z,89.54
2018-02-15T06:20:20.771Z,89.64
2018-02-15T06:21:26.305Z,89.45
2018-02-15T06:22:31.828Z,89.54
2018-02-15T06:23:37.358Z,90.21
2018-02-15T06:24:42.883Z,90.30
2018-02-15T06:25:48.411Z,90.11
2018-02-15T06:26:53.954Z,90.21
2018-02-15T06:27:59.465Z,90.30
2018-02-15T06:29:05.004Z,90.02
2018-02-15T06:30:10.529Z,89.83
2018-02-15T06:31:16.045Z,89.73
2018-02-15T06:32:21.574Z,89.83
2018-02-15T06:33:27.107Z,90.21
2018-02-15T06:34:32.630Z,89.83
2018-02-15T06:35:38.157Z,89.73
2018-02-15T06:36:43.688Z,89.92
2018-02-15T06:37:49.213Z,89.83
2018-02-15T06:38:54.737Z,89.83
2018-02-15T06:40:00.271Z,89.92
2018-02-15T06:41:05.798Z,90.02
2018-02-15T06:42:11.322Z,89.92
2018-02-15T06:43:16.854Z,90.02
2018-02-15T06:44:22.377Z,90.02
2018-02-15T06:45:27.913Z,89.64
2018-02-15T06:46:33.463Z,89.73
2018-02-15T06:47:38.958Z,90.02
2018-02-15T06:48:44.483Z,89.92
2018-02-15T06:49:50.017Z,89.64
2018-02-15T06:50:55.537Z,89.45
2018-02-15T06:52:01.069Z,89.45
2018-02-15T06:53:06.591Z,89.64
2018-02-15T06:54:12.122Z,90.02
2018-02-15T06:55:17.646Z,89.54
2018-02-15T06:56:23.175Z,90.21
2018-02-15T06:57:28.704Z,90.40
2018-02-15T06:58:34.235Z,90.30
2018-02-15T06:59:39.752Z,89.54
2018-02-15T07:00:45.288Z,89.73
2018-02-15T07:01:50.817Z,89.45
2018-02-15T07:02:56.347Z,89.64
2018-02-15T07:04:01.863Z,89.64
2018-02-15T07:05:07.391Z,89.45
2018-02-15T07:06:12.921Z,89.54
2018-02-15T07:07:18.444Z,89.83
2018-02-15T07:08:23.979Z,88.79
2018-02-15T07:09:29.502Z,88.89
2018-02-15T07:10:35.026Z,88.89
2018-02-15T07:11:40.555Z,88.42
2018-02-15T07:12:46.085Z,89.07
2018-02-15T07:13:51.608Z,88.51
2018-02-15T07:14:57.140Z,88.51
2018-02-15T07:16:02.661Z,88.32
2018-02-15T07:17:08.198Z,88.65
2018-02-15T07:18:13.715Z,87.89
2018-02-15T07:19:19.249Z,88.74
2018-02-15T07:20:24.772Z,88.46
2018-02-15T07:21:30.302Z,88.08
2018-02-15T07:22:35.828Z,87.98
2018-02-15T07:23:41.353Z,88.08
2018-02-15T07:24:46.879Z,88.17
2018-02-15T07:25:52.411Z,87.61
2018-02-15T07:26:57.941Z,87.70
2018-02-15T07:28:03.465Z,87.51
2018-02-15T07:29:08.996Z,87.61
2018-02-15T07:30:14.521Z,87.23
2018-02-15T07:31:20.049Z,86.94
2018-02-15T07:32:25.571Z,86.94
2018-02-15T07:33:31.108Z,86.76
2018-02-15T07:34:36.627Z,86.94
2018-02-15T07:35:42.156Z,87.13
2018-02-15T07:36:47.682Z,87.04
2018-02-15T07:37:53.209Z,86.29
2018-02-15T07:38:58.739Z,86.38
2018-02-15T07:40:04.267Z,86.19
2018-02-15T07:41:09.792Z,86.10
2018-02-15T07:42:15.322Z,85.81
2018-02-15T07:43:20.848Z,85.62
2018-02-15T07:44:26.379Z,86.00
2018-02-15T07:45:31.907Z,85.81
2018-02-15T07:46:37.432Z,85.72
2018-02-15T07:49:15.039Z,85.15
2018-02-15T07:50:20.547Z,84.77
2018-02-15T07:51:26.073Z,85.15
2018-02-15T07:52:31.597Z,84.68
2018-02-15T07:53:37.126Z,84.96
2018-02-15T07:54:42.657Z,84.58
2018-02-15T07:55:48.183Z,85.15
2018-02-15T07:56:53.706Z,84.77
2018-02-15T07:57:59.236Z,84.39
2018-02-15T07:59:04.769Z,84.11
2018-02-15T08:00:10.291Z,84.39
2018-02-15T08:01:15.813Z,84.11
2018-02-15T08:02:21.337Z,84.96
2018-02-15T08:03:26.865Z,85.05
2018-02-15T08:04:32.399Z,84.11
2018-02-15T08:05:37.920Z,84.58
2018-02-15T08:06:43.475Z,84.20
2018-02-15T08:07:48.973Z,84.30
2018-02-15T08:08:54.505Z,84.49
2018-02-15T08:10:00.025Z,84.11
2018-02-15T08:11:05.552Z,84.39
2018-02-15T08:12:11.094Z,84.11
2018-02-15T08:13:16.617Z,84.20
2018-02-15T08:14:22.134Z,84.39
2018-02-15T08:15:27.663Z,84.58
2018-02-15T08:16:33.187Z,84.58
2018-02-15T08:17:38.758Z,83.73
2018-02-15T08:18:44.270Z,84.11
2018-02-15T08:19:49.769Z,83.83
2018-02-15T08:20:55.296Z,83.97
2018-02-15T08:22:00.825Z,84.01
2018-02-15T08:23:06.366Z,83.97
2018-02-15T08:24:11.888Z,83.11
2018-02-15T08:25:17.406Z,83.02
2018-02-15T08:26:22.933Z,83.40
2018-02-15T08:27:28.473Z,82.54
2018-02-15T08:28:33.986Z,82.54
2018-02-15T08:29:39.513Z,82.45
2018-02-15T08:30:45.042Z,82.92
2018-02-15T08:31:50.577Z,82.83
2018-02-15T08:32:56.097Z,82.92
2018-02-15T08:34:01.627Z,82.45
2018-02-15T08:35:07.154Z,81.98
2018-02-15T08:36:12.682Z,81.98
2018-02-15T08:37:18.218Z,81.98
2018-02-15T08:38:23.740Z,81.98
2018-02-15T08:39:29.270Z,82.07
2018-02-15T08:40:34.806Z,82.07
2018-02-15T08:41:40.394Z,82.26
2018-02-15T08:42:45.851Z,82.26
2018-02-15T08:43:51.382Z,81.98
2018-02-15T08:44:56.909Z,81.70
2018-02-15T08:46:02.445Z,81.13
2018-02-15T08:47:07.984Z,81.51
2018-02-15T08:48:13.498Z,81.03
2018-02-15T08:49:19.028Z,81.60
2018-02-15T08:50:24.556Z,81.60
2018-02-15T08:51:30.085Z,81.51
2018-02-15T08:52:35.617Z,81.79
2018-02-15T08:53:41.138Z,81.70
2018-02-15T08:54:46.662Z,81.22
2018-02-15T08:55:52.196Z,81.22
2018-02-15T08:56:57.724Z,81.60
2018-02-15T08:58:03.254Z,81.60
2018-02-15T08:59:08.782Z,81.70
2018-02-15T09:00:14.309Z,80.37
2018-02-15T09:01:19.834Z,80.46
2018-02-15T09:02:25.366Z,80.08
2018-02-15T09:03:30.897Z,80.27
2018-02-15T09:04:36.422Z,80.27
2018-02-15T09:05:41.953Z,80.69
2018-02-15T09:06:47.479Z,80.27
2018-02-15T09:07:53.007Z,80.60
2018-02-15T09:08:58.535Z,79.56
2018-02-15T09:10:04.064Z,79.99
2018-02-15T09:11:09.597Z,79.56
2018-02-15T09:12:15.149Z,80.13
2018-02-15T09:13:20.654Z,80.13
2018-02-15T09:14:26.178Z,79.66
2018-02-15T09:15:31.708Z,79.85
2018-02-15T09:16:37.237Z,79.56
2018-02-15T09:17:42.761Z,78.90
2018-02-15T09:18:48.298Z,79.47
2018-02-15T09:19:53.824Z,79.75
2018-02-15T09:20:59.350Z,79.09
2018-02-15T09:22:04.877Z,79.09
2018-02-15T09:23:10.456Z,79.37
2018-02-15T09:24:15.940Z,78.52
2018-02-15T09:25:21.477Z,78.99
2018-02-15T09:26:26.997Z,78.52
2018-02-15T09:27:32.522Z,79.09
2018-02-15T09:28:38.051Z,78.99
2018-02-15T09:29:43.585Z,78.99
2018-02-15T09:30:49.110Z,78.52
2018-02-15T09:31:54.640Z,77.95
2018-02-15T09:33:00.169Z,78.80
2018-02-15T09:34:05.697Z,78.61
2018-02-15T09:35:11.225Z,78.14
2018-02-15T09:36:16.762Z,78.05
2018-02-15T09:37:22.282Z,78.42
2018-02-15T09:38:27.817Z,78.05
2018-02-15T09:39:33.345Z,77.95
2018-02-15T09:40:38.878Z,78.42
2018-02-15T09:41:44.401Z,78.61
2018-02-15T09:42:49.935Z,78.33
2018-02-15T09:43:55.456Z,78.52
2018-02-15T09:45:00.986Z,78.71
2018-02-15T09:46:06.522Z,78.61
2018-02-15T09:47:12.049Z,78.52
2018-02-15T09:48:17.578Z,78.90
2018-02-15T09:49:23.114Z,78.90
2018-02-15T09:50:28.634Z,78.61
2018-02-15T09:51:34.229Z,78.71
2018-02-15T09:52:39.692Z,78.80
2018-02-15T09:53:45.218Z,78.33
2018-02-15T09:54:50.749Z,78.33
2018-02-15T09:55:56.278Z,78.33
2018-02-15T09:57:01.807Z,77.86
2018-02-15T09:58:07.338Z,78.14
2018-02-15T09:59:12.865Z,78.61
2018-02-15T10:00:18.431Z,78.42
2018-02-15T10:01:23.947Z,78.14
2018-02-15T10:02:29.462Z,78.33
2018-02-15T10:03:34.987Z,78.05
2018-02-15T10:04:40.525Z,77.95
2018-02-15T10:05:46.163Z,77.95
2018-02-15T10:08:23.285Z,78.61
2018-02-15T10:09:28.800Z,78.61
2018-02-15T10:10:34.330Z,78.90
2018-02-15T10:11:39.846Z,78.61
2018-02-15T10:12:45.379Z,78.05
2018-02-15T10:13:50.908Z,78.14
2018-02-15T10:14:56.447Z,78.05
2018-02-15T10:16:01.967Z,78.33
2018-02-15T10:17:07.495Z,78.23
2018-02-15T10:18:13.021Z,78.23
2018-02-15T10:19:18.551Z,78.05
2018-02-15T10:20:24.080Z,78.33
2018-02-15T10:21:29.614Z,77.95
2018-02-15T10:22:35.145Z,77.86
2018-02-15T10:23:40.676Z,78.42
2018-02-15T10:24:46.196Z,78.71
2018-02-15T10:25:51.727Z,78.33
2018-02-15T10:26:57.256Z,78.80
2018-02-15T10:28:02.786Z,79.09
2018-02-15T10:29:08.323Z,79.18
2018-02-15T10:30:13.845Z,79.28
2018-02-15T10:31:19.376Z,79.28
2018-02-15T10:32:24.900Z,78.99
2018-02-15T10:33:30.437Z,79.28
2018-02-15T10:34:35.964Z,78.99
2018-02-15T10:35:41.504Z,79.37
2018-02-15T10:36:47.019Z,78.42
2018-02-15T10:37:52.560Z,79.56
2018-02-15T10:38:58.086Z,79.37
2018-02-15T10:40:03.611Z,78.90
2018-02-15T10:41:09.148Z,79.37
2018-02-15T10:42:14.718Z,79.28
2018-02-15T10:43:20.196Z,79.47
2018-02-15T10:44:25.725Z,79.37
2018-02-15T10:45:31.255Z,79.47
2018-02-15T10:46:36.779Z,79.09
2018-02-15T10:47:42.317Z,78.80
2018-02-15T10:48:47.956Z,79.47
2018-02-15T10:49:53.375Z,78.80
2018-02-15T10:50:58.921Z,77.99
2018-02-15T10:52:04.428Z,77.80
2018-02-15T10:53:09.969Z,77.80
2018-02-15T10:54:15.508Z,77.51
2018-02-15T10:55:21.021Z,77.23
2018-02-15T10:56:26.596Z,77.80
2018-02-15T10:57:32.080Z,77.80
2018-02-15T10:58:37.608Z,77.23
2018-02-15T10:59:43.136Z,76.57
2018-02-15T11:00:48.673Z,76.67
2018-02-15T11:01:54.203Z,76.57
2018-02-15T11:02:59.729Z,76.19
2018-02-15T11:04:05.257Z,76.76
2018-02-15T11:05:10.787Z,76.57
2018-02-15T11:06:16.323Z,77.51
2018-02-15T11:07:21.848Z,77.23
2018-02-15T11:08:27.381Z,76.86
2018-02-15T11:09:32.904Z,76.57
2018-02-15T11:10:38.480Z,76.48
2018-02-15T11:11:43.972Z,76.10
2018-02-15T11:12:49.496Z,76.57
2018-02-15T11:13:55.030Z,76.57
2018-02-15T11:15:00.555Z,76.48
2018-02-15T11:16:06.082Z,76.48
2018-02-15T11:17:11.614Z,76.29
2018-02-15T11:18:17.144Z,76.86
2018-02-15T11:19:22.679Z,76.67
2018-02-15T11:20:28.204Z,76.19
2018-02-15T11:21:33.738Z,76.19
2018-02-15T11:22:47.890Z,75.72
2018-02-15T11:24:38.180Z,76.10
2018-02-15T11:25:43.701Z,75.91
2018-02-15T11:26:49.214Z,76.38
2018-02-15T11:27:54.745Z,76.67
2018-02-15T11:29:00.274Z,76.48
2018-02-15T11:30:05.809Z,76.95
2018-02-15T11:31:11.328Z,76.57
2018-02-15T11:32:16.858Z,76.57
2018-02-15T11:33:22.393Z,76.48
2018-02-15T11:34:27.915Z,76.38
2018-02-15T11:35:33.446Z,76.19
2018-02-15T11:36:38.975Z,76.38
2018-02-15T11:37:44.507Z,76.86
2018-02-15T11:38:50.033Z,76.86
2018-02-15T11:39:55.566Z,77.23
2018-02-15T11:41:01.094Z,77.23
2018-02-15T11:42:06.621Z,78.37
2018-02-15T11:43:12.145Z,78.85
2018-02-15T11:44:17.675Z,78.85
2018-02-15T11:45:23.204Z,78.18
2018-02-15T11:46:28.733Z,77.89
2018-02-15T11:47:34.269Z,78.08
2018-02-15T11:48:39.795Z,77.80
2018-02-15T11:49:45.322Z,78.08
2018-02-15T11:50:50.885Z,79.03
2018-02-15T11:51:56.380Z,79.79
2018-02-15T11:53:01.904Z,80.13
2018-02-15T11:54:07.435Z,80.88
2018-02-15T11:55:12.963Z,81.64
2018-02-15T11:56:18.496Z,81.93
2018-02-15T11:57:24.023Z,82.78
2018-02-15T11:58:29.550Z,83.44
2018-02-15T11:59:35.078Z,84.10
2018-02-15T12:00:40.603Z,84.39
2018-02-15T12:01:46.136Z,83.91
2018-02-15T12:02:51.662Z,85.05
2018-02-15T12:03:57.192Z,84.58
2018-02-15T12:05:02.723Z,84.86
2018-02-15T12:06:08.254Z,84.20
2018-02-15T12:07:13.782Z,84.77
2018-02-15T12:08:19.313Z,85.24
2018-02-15T12:09:24.843Z,85.61
2018-02-15T12:10:30.368Z,85.80
2018-02-15T12:11:35.901Z,85.99
2018-02-15T12:12:41.432Z,86.47
2018-02-15T12:13:46.965Z,86.75
2018-02-15T12:14:52.489Z,86.56
2018-02-15T12:15:58.018Z,86.37
2018-02-15T12:17:03.545Z,87.23
2018-02-15T12:18:09.078Z,87.23
2018-02-15T12:19:14.604Z,87.60
2018-02-15T12:20:20.134Z,87.60
2018-02-15T12:21:25.672Z,87.51
2018-02-15T12:22:31.195Z,88.07
2018-02-15T12:23:36.746Z,87.88
2018-02-15T12:24:42.252Z,88.55
2018-02-15T12:25:47.788Z,89.40
2018-02-15T12:26:53.315Z,90.06
2018-02-15T12:27:58.837Z,89.21
2018-02-15T12:29:04.376Z,89.69
2018-02-15T12:30:09.933Z,90.16
2018-02-15T12:31:15.429Z,89.97
2018-02-15T12:32:20.958Z,90.06
2018-02-15T12:33:26.489Z,89.78
2018-02-15T12:34:32.016Z,90.16
2018-02-15T12:35:37.545Z,90.06
2018-02-15T12:36:43.075Z,89.97
2018-02-15T12:37:48.603Z,89.87
2018-02-15T12:38:54.139Z,90.25
2018-02-15T12:39:59.664Z,90.16
2018-02-15T12:41:05.189Z,90.91
2018-02-15T12:42:10.721Z,90.82
2018-02-15T12:43:16.254Z,90.91
2018-02-15T12:44:21.866Z,90.91
2018-02-15T12:45:27.315Z,90.72
2018-02-15T12:46:32.849Z,90.82
2018-02-15T12:47:38.365Z,90.53
2018-02-15T12:48:43.893Z,91.01
2018-02-15T12:49:49.429Z,90.53
2018-02-15T12:50:54.954Z,90.91
2018-02-15T12:52:00.484Z,90.82
2018-02-15T12:53:06.015Z,91.10
2018-02-15T12:54:11.546Z,90.06
2018-02-15T12:55:17.074Z,89.87
2018-02-15T12:56:22.602Z,90.06
2018-02-15T12:57:28.133Z,90.16
2018-02-15T12:58:33.663Z,90.16
2018-02-15T12:59:39.186Z,89.97
2018-02-15T13:00:44.717Z,90.16
2018-02-15T13:01:50.256Z,90.06
2018-02-15T13:02:55.773Z,90.16
2018-02-15T13:04:01.306Z,90.25
2018-02-15T13:05:06.835Z,90.06
2018-02-15T13:06:12.372Z,90.72
2018-02-15T13:07:17.897Z,90.91
2018-02-15T13:08:23.424Z,90.25
2018-02-15T13:09:28.949Z,90.16
2018-02-15T13:10:34.479Z,90.82
2018-02-15T13:11:40.014Z,91.29
2018-02-15T13:12:45.543Z,91.10
2018-02-15T13:13:51.069Z,90.72
2018-02-15T13:14:56.597Z,90.63
2018-02-15T13:16:02.181Z,91.20
2018-02-15T13:17:07.660Z,91.67
2018-02-15T13:18:13.184Z,91.86
2018-02-15T13:19:18.714Z,91.67
2018-02-15T13:20:24.243Z,91.67
2018-02-15T13:21:29.775Z,91.77
2018-02-15T13:22:35.304Z,91.77
2018-02-15T13:23:40.978Z,91.86
2018-02-15T13:24:46.361Z,91.77
2018-02-15T13:25:51.888Z,91.77
2018-02-15T13:26:57.425Z,92.14
2018-02-15T13:28:02.950Z,92.05
2018-02-15T13:29:08.484Z,92.33
2018-02-15T13:30:14.009Z,92.43
2018-02-15T13:31:19.535Z,92.43
2018-02-15T13:32:25.066Z,92.52
2018-02-15T13:33:30.595Z,92.05
2018-02-15T13:34:36.125Z,92.14
2018-02-15T13:35:41.650Z,92.24
2018-02-15T13:36:47.185Z,92.52
2018-02-15T13:37:52.711Z,91.86
2018-02-15T13:38:58.241Z,92.24
2018-02-15T13:40:03.771Z,92.24
2018-02-15T13:41:09.304Z,92.52
2018-02-15T13:42:14.833Z,92.14
2018-02-15T13:43:20.360Z,92.33
2018-02-15T13:44:25.885Z,92.33
2018-02-15T13:45:31.428Z,92.52
2018-02-15T13:46:36.948Z,92.24
2018-02-15T13:47:42.477Z,92.05
2018-02-15T13:48:48.010Z,92.24
2018-02-15T13:49:53.528Z,92.14
2018-02-15T13:50:59.061Z,92.24
2018-02-15T13:52:04.591Z,92.33
2018-02-15T13:53:10.121Z,92.90
2018-02-15T13:54:15.687Z,92.33
2018-02-15T13:55:21.177Z,92.61
2018-02-15T13:56:26.713Z,92.90
2018-02-15T13:57:32.234Z,92.61
2018-02-15T13:58:37.763Z,92.90
2018-02-15T13:59:43.302Z,93.28
2018-02-15T14:00:48.827Z,92.90
2018-02-15T14:01:54.354Z,93.09
2018-02-15T14:02:59.878Z,92.90
2018-02-15T14:04:05.409Z,92.99
2018-02-15T14:05:10.944Z,93.28
2018-02-15T14:06:16.468Z,93.18
2018-02-15T14:07:21.998Z,93.37